sensor_id;sensor_type;location;lat;lon;timestamp;P1;durP1;ratioP1;P2;durP2;ratioP2
46607;SDS011;32330;51.936;7.184;2023-03-01T04:48:26;8.73;;;6.18;;
46607;SDS011;32330;51.936;7.184;2023-03-01T04:50:53;7.88;;;5.82;;
46607;SDS011;32330;51.936;7.184;2023-03-01T04:53:20;8.02;;;5.68;;
46607;SDS011;32330;51.936;7.184;2023-03-01T04:55:47;9.32;;;6.30;;
46607;SDS011;32330;51.936;7.184;2023-03-01T04:58:14;8.73;;;6.45;;
46607;SDS011;32330;51.936;7.184;2023-03-01T05:00:43;8.73;;;6.40;;
46607;SDS011;32330;51.936;7.184;2023-03-01T05:03:10;8.65;;;6.88;;
46607;SDS011;32330;51.936;7.184;2023-03-01T05:05:38;8.02;;;5.72;;
46607;SDS011;32330;51.936;7.184;2023-03-01T05:08:06;11.20;;;7.18;;
46607;SDS011;32330;51.936;7.184;2023-03-01T05:10:34;7.68;;;6.28;;
46607;SDS011;32330;51.936;7.184;2023-03-01T05:13:03;9.85;;;6.90;;
46607;SDS011;32330;51.936;7.184;2023-03-01T05:15:31;8.02;;;6.43;;
46607;SDS011;32330;51.936;7.184;2023-03-01T05:18:04;8.52;;;6.40;;
46607;SDS011;32330;51.936;7.184;2023-03-01T05:20:36;10.70;;;6.68;;
46607;SDS011;32330;51.936;7.184;2023-03-01T05:23:05;9.82;;;6.78;;
46607;SDS011;32330;51.936;7.184;2023-03-01T05:25:32;9.80;;;6.50;;
46607;SDS011;32330;51.936;7.184;2023-03-01T05:28:00;7.72;;;6.47;;
46607;SDS011;32330;51.936;7.184;2023-03-01T05:30:29;8.25;;;6.47;;
46607;SDS011;32330;51.936;7.184;2023-03-01T05:32:58;7.80;;;6.25;;
46607;SDS011;32330;51.936;7.184;2023-03-01T05:35:25;9.10;;;7.10;;
46607;SDS011;32330;51.936;7.184;2023-03-01T05:37:53;10.27;;;7.65;;
46607;SDS011;32330;51.936;7.184;2023-03-01T05:40:21;9.48;;;7.32;;
46607;SDS011;32330;51.936;7.184;2023-03-01T05:42:50;9.38;;;8.10;;
46607;SDS011;32330;51.936;7.184;2023-03-01T05:45:19;10.32;;;7.38;;
46607;SDS011;32330;51.936;7.184;2023-03-01T05:47:47;6.85;;;6.15;;
46607;SDS011;32330;51.936;7.184;2023-03-01T05:50:15;9.70;;;7.30;;
46607;SDS011;32330;51.936;7.184;2023-03-01T05:52:45;8.70;;;6.88;;
46607;SDS011;32330;51.936;7.184;2023-03-01T05:55:15;7.45;;;6.10;;
46607;SDS011;32330;51.936;7.184;2023-03-01T05:57:42;8.52;;;7.00;;
46607;SDS011;32330;51.936;7.184;2023-03-01T06:00:09;9.73;;;7.35;;
46607;SDS011;32330;51.936;7.184;2023-03-01T06:02:38;8.38;;;6.57;;
46607;SDS011;32330;51.936;7.184;2023-03-01T06:05:06;10.80;;;7.35;;
46607;SDS011;32330;51.936;7.184;2023-03-01T06:07:34;9.20;;;7.03;;
46607;SDS011;32330;51.936;7.184;2023-03-01T06:10:01;8.75;;;7.22;;
46607;SDS011;32330;51.936;7.184;2023-03-01T06:12:31;10.50;;;7.20;;
46607;SDS011;32330;51.936;7.184;2023-03-01T06:14:59;13.57;;;8.65;;
46607;SDS011;32330;51.936;7.184;2023-03-01T06:17:28;9.55;;;6.88;;
46607;SDS011;32330;51.936;7.184;2023-03-01T06:19:56;8.52;;;6.40;;
46607;SDS011;32330;51.936;7.184;2023-03-01T06:22:23;10.38;;;7.30;;
46607;SDS011;32330;51.936;7.184;2023-03-01T06:24:50;9.30;;;6.93;;
46607;SDS011;32330;51.936;7.184;2023-03-01T06:27:17;10.63;;;7.70;;
46607;SDS011;32330;51.936;7.184;2023-03-01T06:29:46;7.88;;;6.40;;
46607;SDS011;32330;51.936;7.184;2023-03-01T06:32:16;10.57;;;6.78;;
46607;SDS011;32330;51.936;7.184;2023-03-01T06:34:43;8.70;;;6.97;;
46607;SDS011;32330;51.936;7.184;2023-03-01T06:37:11;9.48;;;6.35;;
46607;SDS011;32330;51.936;7.184;2023-03-01T06:39:38;11.60;;;7.13;;
46607;SDS011;32330;51.936;7.184;2023-03-01T06:42:05;8.30;;;6.30;;
46607;SDS011;32330;51.936;7.184;2023-03-01T06:44:35;9.32;;;6.75;;
46607;SDS011;32330;51.936;7.184;2023-03-01T06:47:03;9.80;;;7.20;;
46607;SDS011;32330;51.936;7.184;2023-03-01T06:49:31;10.82;;;7.22;;
46607;SDS011;32330;51.936;7.184;2023-03-01T06:51:57;10.15;;;7.03;;
46607;SDS011;32330;51.936;7.184;2023-03-01T06:54:25;9.75;;;7.13;;
46607;SDS011;32330;51.936;7.184;2023-03-01T06:56:52;10.93;;;7.18;;
46607;SDS011;32330;51.936;7.184;2023-03-01T06:59:19;8.95;;;7.10;;
46607;SDS011;32330;51.936;7.184;2023-03-01T07:01:54;8.25;;;7.30;;
46607;SDS011;32330;51.936;7.184;2023-03-01T07:04:23;7.50;;;6.60;;
46607;SDS011;32330;51.936;7.184;2023-03-01T07:06:50;8.68;;;7.22;;
46607;SDS011;32330;51.936;7.184;2023-03-01T07:09:20;10.25;;;7.60;;
46607;SDS011;32330;51.936;7.184;2023-03-01T07:11:48;8.63;;;7.40;;
46607;SDS011;32330;51.936;7.184;2023-03-01T07:14:15;9.70;;;7.40;;
46607;SDS011;32330;51.936;7.184;2023-03-01T07:16:42;9.52;;;7.97;;
46607;SDS011;32330;51.936;7.184;2023-03-01T07:19:09;11.02;;;7.10;;
46607;SDS011;32330;51.936;7.184;2023-03-01T07:21:37;8.75;;;6.57;;
46607;SDS011;32330;51.936;7.184;2023-03-01T07:24:05;9.85;;;7.82;;
46607;SDS011;32330;51.936;7.184;2023-03-01T07:26:32;8.43;;;7.05;;
46607;SDS011;32330;51.936;7.184;2023-03-01T07:28:59;11.68;;;7.65;;
46607;SDS011;32330;51.936;7.184;2023-03-01T07:31:27;7.53;;;6.22;;
46607;SDS011;32330;51.936;7.184;2023-03-01T07:33:53;7.80;;;6.10;;
46607;SDS011;32330;51.936;7.184;2023-03-01T07:36:20;9.90;;;6.90;;
46607;SDS011;32330;51.936;7.184;2023-03-01T07:38:49;9.55;;;6.85;;
46607;SDS011;32330;51.936;7.184;2023-03-01T07:41:17;9.30;;;6.90;;
46607;SDS011;32330;51.936;7.184;2023-03-01T07:43:44;8.38;;;6.65;;
46607;SDS011;32330;51.936;7.184;2023-03-01T07:46:13;9.18;;;6.47;;
46607;SDS011;32330;51.936;7.184;2023-03-01T07:48:41;8.98;;;7.18;;
46607;SDS011;32330;51.936;7.184;2023-03-01T07:51:08;9.70;;;6.38;;
46607;SDS011;32330;51.936;7.184;2023-03-01T07:53:36;9.50;;;6.38;;
46607;SDS011;32330;51.936;7.184;2023-03-01T07:56:06;8.27;;;5.97;;
46607;SDS011;32330;51.936;7.184;2023-03-01T07:58:34;10.37;;;6.80;;
46607;SDS011;32330;51.936;7.184;2023-03-01T08:01:01;12.55;;;6.35;;
46607;SDS011;32330;51.936;7.184;2023-03-01T08:03:29;8.00;;;6.15;;
46607;SDS011;32330;51.936;7.184;2023-03-01T08:05:58;10.07;;;6.35;;
46607;SDS011;32330;51.936;7.184;2023-03-01T08:08:25;10.85;;;6.70;;
46607;SDS011;32330;51.936;7.184;2023-03-01T08:10:55;7.63;;;5.90;;
46607;SDS011;32330;51.936;7.184;2023-03-01T08:13:24;9.70;;;6.47;;
46607;SDS011;32330;51.936;7.184;2023-03-01T08:15:51;9.40;;;6.40;;
46607;SDS011;32330;51.936;7.184;2023-03-01T08:18:19;9.07;;;6.07;;
46607;SDS011;32330;51.936;7.184;2023-03-01T08:20:47;9.80;;;6.95;;
46607;SDS011;32330;51.936;7.184;2023-03-01T08:23:14;10.07;;;6.90;;
46607;SDS011;32330;51.936;7.184;2023-03-01T08:25:44;8.18;;;5.72;;
46607;SDS011;32330;51.936;7.184;2023-03-01T08:28:11;9.43;;;6.00;;
46607;SDS011;32330;51.936;7.184;2023-03-01T08:30:39;7.13;;;5.75;;
46607;SDS011;32330;51.936;7.184;2023-03-01T08:33:06;7.80;;;6.35;;
46607;SDS011;32330;51.936;7.184;2023-03-01T08:35:33;10.10;;;7.03;;
46607;SDS011;32330;51.936;7.184;2023-03-01T08:38:00;10.30;;;5.55;;
46607;SDS011;32330;51.936;7.184;2023-03-01T08:40:27;8.80;;;5.90;;
46607;SDS011;32330;51.936;7.184;2023-03-01T08:42:54;10.20;;;5.55;;
46607;SDS011;32330;51.936;7.184;2023-03-01T08:45:20;7.70;;;5.82;;
46607;SDS011;32330;51.936;7.184;2023-03-01T08:47:50;8.07;;;5.78;;
46607;SDS011;32330;51.936;7.184;2023-03-01T08:50:18;8.35;;;6.03;;
46607;SDS011;32330;51.936;7.184;2023-03-01T08:52:45;7.18;;;5.57;;
46607;SDS011;32330;51.936;7.184;2023-03-01T08:55:12;6.60;;;5.05;;
46607;SDS011;32330;51.936;7.184;2023-03-01T08:57:41;9.32;;;5.82;;
46607;SDS011;32330;51.936;7.184;2023-03-01T09:00:08;7.10;;;5.60;;
46607;SDS011;32330;51.936;7.184;2023-03-01T09:05:09;8.48;;;5.85;;
46607;SDS011;32330;51.936;7.184;2023-03-01T09:07:36;8.75;;;5.82;;
46607;SDS011;32330;51.936;7.184;2023-03-01T09:10:03;10.27;;;5.45;;
46607;SDS011;32330;51.936;7.184;2023-03-01T09:12:31;8.88;;;5.63;;
46607;SDS011;32330;51.936;7.184;2023-03-01T09:14:58;7.68;;;5.20;;
46607;SDS011;32330;51.936;7.184;2023-03-01T09:17:25;6.90;;;5.22;;
46607;SDS011;32330;51.936;7.184;2023-03-01T09:19:51;8.55;;;5.28;;
46607;SDS011;32330;51.936;7.184;2023-03-01T09:22:20;7.95;;;5.35;;
46607;SDS011;32330;51.936;7.184;2023-03-01T09:24:47;7.85;;;5.63;;
46607;SDS011;32330;51.936;7.184;2023-03-01T09:27:14;10.13;;;5.55;;
46607;SDS011;32330;51.936;7.184;2023-03-01T09:29:43;7.88;;;5.43;;
46607;SDS011;32330;51.936;7.184;2023-03-01T09:32:10;7.85;;;5.53;;
46607;SDS011;32330;51.936;7.184;2023-03-01T09:34:37;7.68;;;5.38;;
46607;SDS011;32330;51.936;7.184;2023-03-01T09:37:20;8.10;;;5.40;;
46607;SDS011;32330;51.936;7.184;2023-03-01T09:39:47;8.38;;;5.97;;
46607;SDS011;32330;51.936;7.184;2023-03-01T09:42:14;7.82;;;5.65;;
46607;SDS011;32330;51.936;7.184;2023-03-01T09:44:43;8.70;;;5.57;;
46607;SDS011;32330;51.936;7.184;2023-03-01T09:47:16;10.20;;;6.10;;
46607;SDS011;32330;51.936;7.184;2023-03-01T09:49:45;10.75;;;6.43;;
46607;SDS011;32330;51.936;7.184;2023-03-01T09:52:26;7.57;;;5.78;;
46607;SDS011;32330;51.936;7.184;2023-03-01T09:54:59;9.75;;;5.60;;
46607;SDS011;32330;51.936;7.184;2023-03-01T09:57:30;7.15;;;5.70;;
46607;SDS011;32330;51.936;7.184;2023-03-01T10:00:13;6.32;;;5.30;;
46607;SDS011;32330;51.936;7.184;2023-03-01T10:02:47;6.97;;;5.25;;
46607;SDS011;32330;51.936;7.184;2023-03-01T10:05:22;9.63;;;6.40;;
46607;SDS011;32330;51.936;7.184;2023-03-01T10:08:02;9.55;;;6.07;;
46607;SDS011;32330;51.936;7.184;2023-03-01T10:10:46;7.22;;;5.90;;
46607;SDS011;32330;51.936;7.184;2023-03-01T10:13:15;7.97;;;6.45;;
46607;SDS011;32330;51.936;7.184;2023-03-01T10:15:47;9.25;;;6.65;;
46607;SDS011;32330;51.936;7.184;2023-03-01T10:18:20;8.52;;;6.70;;
46607;SDS011;32330;51.936;7.184;2023-03-01T10:20:52;9.07;;;7.35;;
46607;SDS011;32330;51.936;7.184;2023-03-01T10:23:24;11.18;;;6.30;;
46607;SDS011;32330;51.936;7.184;2023-03-01T10:26:03;9.18;;;6.78;;
46607;SDS011;32330;51.936;7.184;2023-03-01T10:28:40;7.65;;;6.38;;
46607;SDS011;32330;51.936;7.184;2023-03-01T10:31:18;8.18;;;5.97;;
46607;SDS011;32330;51.936;7.184;2023-03-01T10:33:48;9.50;;;6.55;;
46607;SDS011;32330;51.936;7.184;2023-03-01T10:36:20;10.13;;;7.03;;
46607;SDS011;32330;51.936;7.184;2023-03-01T10:38:49;8.40;;;6.53;;
46607;SDS011;32330;51.936;7.184;2023-03-01T10:41:19;7.00;;;6.00;;
46607;SDS011;32330;51.936;7.184;2023-03-01T10:43:49;8.75;;;6.28;;
46607;SDS011;32330;51.936;7.184;2023-03-01T10:46:21;8.93;;;6.63;;
46607;SDS011;32330;51.936;7.184;2023-03-01T10:48:58;8.52;;;6.50;;
46607;SDS011;32330;51.936;7.184;2023-03-01T10:51:40;9.30;;;6.45;;
46607;SDS011;32330;51.936;7.184;2023-03-01T10:54:16;9.60;;;6.53;;
46607;SDS011;32330;51.936;7.184;2023-03-01T10:56:46;13.68;;;6.47;;
46607;SDS011;32330;51.936;7.184;2023-03-01T10:59:20;9.30;;;6.20;;
46607;SDS011;32330;51.936;7.184;2023-03-01T11:02:00;9.27;;;6.57;;
46607;SDS011;32330;51.936;7.184;2023-03-01T11:04:39;8.38;;;6.22;;
46607;SDS011;32330;51.936;7.184;2023-03-01T11:07:07;9.02;;;6.90;;
46607;SDS011;32330;51.936;7.184;2023-03-01T11:09:35;9.20;;;7.35;;
46607;SDS011;32330;51.936;7.184;2023-03-01T11:12:04;8.77;;;6.10;;
46607;SDS011;32330;51.936;7.184;2023-03-01T11:14:38;8.48;;;5.88;;
46607;SDS011;32330;51.936;7.184;2023-03-01T11:17:14;8.60;;;6.53;;
46607;SDS011;32330;51.936;7.184;2023-03-01T11:19:44;10.45;;;7.72;;
46607;SDS011;32330;51.936;7.184;2023-03-01T11:22:26;8.43;;;6.57;;
46607;SDS011;32330;51.936;7.184;2023-03-01T11:24:55;10.25;;;7.22;;
46607;SDS011;32330;51.936;7.184;2023-03-01T11:27:24;10.50;;;7.32;;
46607;SDS011;32330;51.936;7.184;2023-03-01T11:29:54;9.48;;;6.97;;
46607;SDS011;32330;51.936;7.184;2023-03-01T11:32:26;8.70;;;6.50;;
46607;SDS011;32330;51.936;7.184;2023-03-01T11:35:01;8.65;;;6.70;;
46607;SDS011;32330;51.936;7.184;2023-03-01T11:37:35;9.52;;;6.80;;
46607;SDS011;32330;51.936;7.184;2023-03-01T11:40:13;9.52;;;7.10;;
46607;SDS011;32330;51.936;7.184;2023-03-01T11:42:50;9.10;;;7.28;;
46607;SDS011;32330;51.936;7.184;2023-03-01T11:45:25;7.55;;;6.40;;
46607;SDS011;32330;51.936;7.184;2023-03-01T11:48:01;8.48;;;6.40;;
46607;SDS011;32330;51.936;7.184;2023-03-01T11:50:39;8.55;;;7.45;;
46607;SDS011;32330;51.936;7.184;2023-03-01T11:53:21;9.18;;;7.32;;
46607;SDS011;32330;51.936;7.184;2023-03-01T11:56:05;10.20;;;6.35;;
46607;SDS011;32330;51.936;7.184;2023-03-01T11:58:45;8.55;;;6.90;;
46607;SDS011;32330;51.936;7.184;2023-03-01T12:01:28;8.18;;;6.32;;
46607;SDS011;32330;51.936;7.184;2023-03-01T12:06:59;7.85;;;6.65;;
46607;SDS011;32330;51.936;7.184;2023-03-01T12:09:30;10.27;;;7.15;;
46607;SDS011;32330;51.936;7.184;2023-03-01T12:12:12;9.15;;;6.35;;
46607;SDS011;32330;51.936;7.184;2023-03-01T12:14:54;6.63;;;5.50;;
46607;SDS011;32330;51.936;7.184;2023-03-01T12:17:42;8.68;;;6.07;;
46607;SDS011;32330;51.936;7.184;2023-03-01T12:20:26;8.05;;;5.95;;
46607;SDS011;32330;51.936;7.184;2023-03-01T12:23:02;7.22;;;5.05;;
46607;SDS011;32330;51.936;7.184;2023-03-01T12:28:30;7.90;;;5.93;;
46607;SDS011;32330;51.936;7.184;2023-03-01T12:31:32;8.15;;;5.35;;
46607;SDS011;32330;51.936;7.184;2023-03-01T12:34:21;8.10;;;5.82;;
46607;SDS011;32330;51.936;7.184;2023-03-01T12:37:11;10.35;;;6.53;;
46607;SDS011;32330;51.936;7.184;2023-03-01T12:39:51;7.50;;;6.28;;
46607;SDS011;32330;51.936;7.184;2023-03-01T12:42:30;7.88;;;6.88;;
46607;SDS011;32330;51.936;7.184;2023-03-01T12:45:26;6.75;;;5.47;;
46607;SDS011;32330;51.936;7.184;2023-03-01T12:48:16;8.57;;;6.70;;
46607;SDS011;32330;51.936;7.184;2023-03-01T12:50:55;8.55;;;6.63;;
46607;SDS011;32330;51.936;7.184;2023-03-01T12:53:27;8.20;;;6.07;;
46607;SDS011;32330;51.936;7.184;2023-03-01T12:55:58;8.48;;;5.95;;
46607;SDS011;32330;51.936;7.184;2023-03-01T12:58:28;6.95;;;6.28;;
46607;SDS011;32330;51.936;7.184;2023-03-01T13:01:02;9.63;;;6.53;;
46607;SDS011;32330;51.936;7.184;2023-03-01T13:03:53;8.18;;;6.38;;
46607;SDS011;32330;51.936;7.184;2023-03-01T13:06:30;7.78;;;5.70;;
46607;SDS011;32330;51.936;7.184;2023-03-01T13:09:08;6.32;;;5.22;;
46607;SDS011;32330;51.936;7.184;2023-03-01T13:11:46;6.50;;;5.30;;
46607;SDS011;32330;51.936;7.184;2023-03-01T13:17:32;6.88;;;5.47;;
46607;SDS011;32330;51.936;7.184;2023-03-01T13:20:14;7.05;;;5.50;;
46607;SDS011;32330;51.936;7.184;2023-03-01T13:22:43;7.00;;;5.43;;
46607;SDS011;32330;51.936;7.184;2023-03-01T13:25:13;7.03;;;5.25;;
46607;SDS011;32330;51.936;7.184;2023-03-01T13:27:43;9.80;;;5.43;;
46607;SDS011;32330;51.936;7.184;2023-03-01T13:33:38;6.20;;;5.20;;
46607;SDS011;32330;51.936;7.184;2023-03-01T13:36:08;5.70;;;4.32;;
46607;SDS011;32330;51.936;7.184;2023-03-01T13:38:38;9.63;;;5.00;;
46607;SDS011;32330;51.936;7.184;2023-03-01T13:41:12;7.63;;;5.28;;
46607;SDS011;32330;51.936;7.184;2023-03-01T13:43:43;6.00;;;4.90;;
46607;SDS011;32330;51.936;7.184;2023-03-01T13:46:15;5.43;;;4.72;;
46607;SDS011;32330;51.936;7.184;2023-03-01T13:48:47;5.85;;;5.20;;
46607;SDS011;32330;51.936;7.184;2023-03-01T13:51:20;8.55;;;5.30;;
46607;SDS011;32330;51.936;7.184;2023-03-01T13:53:50;5.93;;;4.68;;
46607;SDS011;32330;51.936;7.184;2023-03-01T13:56:24;8.35;;;6.57;;
46607;SDS011;32330;51.936;7.184;2023-03-01T13:58:53;8.00;;;6.20;;
46607;SDS011;32330;51.936;7.184;2023-03-01T14:01:24;8.15;;;4.90;;
46607;SDS011;32330;51.936;7.184;2023-03-01T14:03:54;8.73;;;5.10;;
46607;SDS011;32330;51.936;7.184;2023-03-01T14:06:22;6.95;;;4.90;;
46607;SDS011;32330;51.936;7.184;2023-03-01T14:08:52;6.80;;;5.13;;
46607;SDS011;32330;51.936;7.184;2023-03-01T14:11:35;7.03;;;5.15;;
46607;SDS011;32330;51.936;7.184;2023-03-01T14:14:29;6.07;;;5.00;;
46607;SDS011;32330;51.936;7.184;2023-03-01T14:17:08;5.82;;;4.63;;
46607;SDS011;32330;51.936;7.184;2023-03-01T14:19:58;5.35;;;4.50;;
46607;SDS011;32330;51.936;7.184;2023-03-01T14:22:32;6.95;;;4.85;;
46607;SDS011;32330;51.936;7.184;2023-03-01T14:25:05;6.97;;;5.07;;
46607;SDS011;32330;51.936;7.184;2023-03-01T14:27:43;6.20;;;4.32;;
46607;SDS011;32330;51.936;7.184;2023-03-01T14:30:11;6.30;;;4.72;;
46607;SDS011;32330;51.936;7.184;2023-03-01T14:32:43;7.93;;;5.00;;
46607;SDS011;32330;51.936;7.184;2023-03-01T14:35:21;5.93;;;4.93;;
46607;SDS011;32330;51.936;7.184;2023-03-01T14:37:50;7.78;;;5.18;;
46607;SDS011;32330;51.936;7.184;2023-03-01T14:40:22;7.55;;;5.47;;
46607;SDS011;32330;51.936;7.184;2023-03-01T14:42:51;7.47;;;4.65;;
46607;SDS011;32330;51.936;7.184;2023-03-01T14:45:19;7.03;;;5.68;;
46607;SDS011;32330;51.936;7.184;2023-03-01T14:47:47;7.57;;;5.50;;
46607;SDS011;32330;51.936;7.184;2023-03-01T14:50:21;6.78;;;5.20;;
46607;SDS011;32330;51.936;7.184;2023-03-01T14:52:51;7.60;;;5.00;;
46607;SDS011;32330;51.936;7.184;2023-03-01T14:55:21;7.57;;;5.40;;
46607;SDS011;32330;51.936;7.184;2023-03-01T14:57:51;7.80;;;5.00;;
46607;SDS011;32330;51.936;7.184;2023-03-01T15:00:20;7.18;;;4.88;;
46607;SDS011;32330;51.936;7.184;2023-03-01T15:02:50;5.82;;;4.93;;
46607;SDS011;32330;51.936;7.184;2023-03-01T15:05:19;8.60;;;5.07;;
46607;SDS011;32330;51.936;7.184;2023-03-01T15:07:52;5.90;;;4.80;;
46607;SDS011;32330;51.936;7.184;2023-03-01T15:10:20;6.90;;;4.95;;
46607;SDS011;32330;51.936;7.184;2023-03-01T15:12:51;6.07;;;4.47;;
46607;SDS011;32330;51.936;7.184;2023-03-01T15:18:12;5.70;;;4.35;;
46607;SDS011;32330;51.936;7.184;2023-03-01T15:20:44;6.70;;;4.65;;
46607;SDS011;32330;51.936;7.184;2023-03-01T15:23:20;5.72;;;3.92;;
46607;SDS011;32330;51.936;7.184;2023-03-01T15:25:50;6.82;;;4.57;;
46607;SDS011;32330;51.936;7.184;2023-03-01T15:28:22;5.40;;;3.85;;
46607;SDS011;32330;51.936;7.184;2023-03-01T15:30:52;4.75;;;3.63;;
46607;SDS011;32330;51.936;7.184;2023-03-01T15:33:30;5.60;;;4.25;;
46607;SDS011;32330;51.936;7.184;2023-03-01T15:36:01;5.72;;;4.15;;
46607;SDS011;32330;51.936;7.184;2023-03-01T15:38:34;7.63;;;3.87;;
46607;SDS011;32330;51.936;7.184;2023-03-01T15:41:04;5.07;;;3.58;;
46607;SDS011;32330;51.936;7.184;2023-03-01T15:43:47;4.53;;;3.67;;
46607;SDS011;32330;51.936;7.184;2023-03-01T15:46:25;5.20;;;3.60;;
46607;SDS011;32330;51.936;7.184;2023-03-01T15:48:55;4.55;;;3.85;;
46607;SDS011;32330;51.936;7.184;2023-03-01T15:51:31;5.47;;;3.90;;
46607;SDS011;32330;51.936;7.184;2023-03-01T15:54:01;5.72;;;3.83;;
46607;SDS011;32330;51.936;7.184;2023-03-01T15:56:31;6.43;;;3.83;;
46607;SDS011;32330;51.936;7.184;2023-03-01T15:58:59;5.25;;;3.70;;
46607;SDS011;32330;51.936;7.184;2023-03-01T16:01:27;11.93;;;4.10;;
46607;SDS011;32330;51.936;7.184;2023-03-01T16:03:54;5.55;;;3.83;;
46607;SDS011;32330;51.936;7.184;2023-03-01T16:06:23;6.30;;;3.97;;
46607;SDS011;32330;51.936;7.184;2023-03-01T16:08:52;4.90;;;3.40;;
46607;SDS011;32330;51.936;7.184;2023-03-01T16:11:19;6.05;;;3.63;;
46607;SDS011;32330;51.936;7.184;2023-03-01T16:13:49;5.43;;;3.97;;
46607;SDS011;32330;51.936;7.184;2023-03-01T16:16:17;6.13;;;3.88;;
46607;SDS011;32330;51.936;7.184;2023-03-01T16:18:44;5.63;;;3.90;;
46607;SDS011;32330;51.936;7.184;2023-03-01T16:21:15;7.05;;;4.05;;
46607;SDS011;32330;51.936;7.184;2023-03-01T16:23:48;5.63;;;3.45;;
46607;SDS011;32330;51.936;7.184;2023-03-01T16:26:17;7.13;;;4.03;;
46607;SDS011;32330;51.936;7.184;2023-03-01T16:28:45;5.85;;;4.07;;
46607;SDS011;32330;51.936;7.184;2023-03-01T16:31:14;5.72;;;3.60;;
46607;SDS011;32330;51.936;7.184;2023-03-01T16:33:44;6.75;;;4.00;;
46607;SDS011;32330;51.936;7.184;2023-03-01T16:36:15;5.65;;;3.78;;
46607;SDS011;32330;51.936;7.184;2023-03-01T16:38:46;6.20;;;4.15;;
46607;SDS011;32330;51.936;7.184;2023-03-01T16:41:18;5.78;;;3.40;;
46607;SDS011;32330;51.936;7.184;2023-03-01T16:43:47;6.47;;;3.80;;
46607;SDS011;32330;51.936;7.184;2023-03-01T16:46:15;5.57;;;3.70;;
46607;SDS011;32330;51.936;7.184;2023-03-01T16:48:44;6.88;;;4.05;;
46607;SDS011;32330;51.936;7.184;2023-03-01T16:51:12;5.22;;;3.55;;
46607;SDS011;32330;51.936;7.184;2023-03-01T16:53:54;4.70;;;3.75;;
46607;SDS011;32330;51.936;7.184;2023-03-01T16:56:25;6.10;;;4.00;;
46607;SDS011;32330;51.936;7.184;2023-03-01T16:58:54;4.80;;;3.15;;
46607;SDS011;32330;51.936;7.184;2023-03-01T17:01:21;6.45;;;4.32;;
46607;SDS011;32330;51.936;7.184;2023-03-01T17:03:49;5.45;;;4.07;;
46607;SDS011;32330;51.936;7.184;2023-03-01T17:06:17;5.93;;;3.83;;
46607;SDS011;32330;51.936;7.184;2023-03-01T17:08:47;7.25;;;4.00;;
46607;SDS011;32330;51.936;7.184;2023-03-01T17:11:17;6.50;;;3.88;;
46607;SDS011;32330;51.936;7.184;2023-03-01T17:13:46;10.35;;;4.78;;
46607;SDS011;32330;51.936;7.184;2023-03-01T17:16:17;7.45;;;4.90;;
46607;SDS011;32330;51.936;7.184;2023-03-01T17:18:45;6.25;;;4.00;;
46607;SDS011;32330;51.936;7.184;2023-03-01T17:21:15;7.72;;;4.68;;
46607;SDS011;32330;51.936;7.184;2023-03-01T17:23:43;6.68;;;4.15;;
46607;SDS011;32330;51.936;7.184;2023-03-01T17:26:11;5.45;;;3.75;;
46607;SDS011;32330;51.936;7.184;2023-03-01T17:28:38;17.23;;;9.15;;
46607;SDS011;32330;51.936;7.184;2023-03-01T17:31:06;27.35;;;13.73;;
46607;SDS011;32330;51.936;7.184;2023-03-01T17:33:34;21.55;;;9.65;;
46607;SDS011;32330;51.936;7.184;2023-03-01T17:36:01;33.28;;;16.33;;
46607;SDS011;32330;51.936;7.184;2023-03-01T17:38:28;34.50;;;15.75;;
46607;SDS011;32330;51.936;7.184;2023-03-01T17:40:57;37.17;;;18.13;;
46607;SDS011;32330;51.936;7.184;2023-03-01T17:43:28;23.45;;;11.80;;
46607;SDS011;32330;51.936;7.184;2023-03-01T17:45:56;14.25;;;7.70;;
46607;SDS011;32330;51.936;7.184;2023-03-01T17:48:24;9.70;;;6.93;;
46607;SDS011;32330;51.936;7.184;2023-03-01T17:50:51;10.05;;;6.22;;
46607;SDS011;32330;51.936;7.184;2023-03-01T17:53:18;8.85;;;5.78;;
46607;SDS011;32330;51.936;7.184;2023-03-01T17:55:45;9.70;;;8.05;;
46607;SDS011;32330;51.936;7.184;2023-03-01T17:58:13;13.23;;;9.77;;
46607;SDS011;32330;51.936;7.184;2023-03-01T18:00:46;10.85;;;8.50;;
46607;SDS011;32330;51.936;7.184;2023-03-01T18:03:16;9.13;;;6.75;;
46607;SDS011;32330;51.936;7.184;2023-03-01T18:05:44;8.45;;;5.82;;
46607;SDS011;32330;51.936;7.184;2023-03-01T18:08:12;9.82;;;5.35;;
46607;SDS011;32330;51.936;7.184;2023-03-01T18:10:42;18.02;;;12.20;;
46607;SDS011;32330;51.936;7.184;2023-03-01T18:13:08;14.45;;;10.75;;
46607;SDS011;32330;51.936;7.184;2023-03-01T18:15:39;15.73;;;10.50;;
46607;SDS011;32330;51.936;7.184;2023-03-01T18:18:08;17.52;;;10.90;;
46607;SDS011;32330;51.936;7.184;2023-03-01T18:20:35;14.43;;;8.98;;
46607;SDS011;32330;51.936;7.184;2023-03-01T18:23:03;17.83;;;11.70;;
46607;SDS011;32330;51.936;7.184;2023-03-01T18:25:31;10.93;;;7.95;;
46607;SDS011;32330;51.936;7.184;2023-03-01T18:27:57;8.65;;;6.85;;
46607;SDS011;32330;51.936;7.184;2023-03-01T18:30:25;6.90;;;5.80;;
46607;SDS011;32330;51.936;7.184;2023-03-01T18:32:52;7.22;;;5.55;;
46607;SDS011;32330;51.936;7.184;2023-03-01T18:35:23;6.90;;;4.90;;
46607;SDS011;32330;51.936;7.184;2023-03-01T18:37:50;6.15;;;4.80;;
46607;SDS011;32330;51.936;7.184;2023-03-01T18:40:24;12.90;;;7.60;;
46607;SDS011;32330;51.936;7.184;2023-03-01T18:42:50;9.35;;;6.22;;
46607;SDS011;32330;51.936;7.184;2023-03-01T18:45:17;14.18;;;8.90;;
46607;SDS011;32330;51.936;7.184;2023-03-01T18:47:44;25.63;;;13.43;;
46607;SDS011;32330;51.936;7.184;2023-03-01T18:50:14;18.15;;;11.48;;
46607;SDS011;32330;51.936;7.184;2023-03-01T18:52:41;20.30;;;11.68;;
46607;SDS011;32330;51.936;7.184;2023-03-01T18:55:08;18.85;;;11.10;;
46607;SDS011;32330;51.936;7.184;2023-03-01T18:57:57;12.02;;;8.27;;
46607;SDS011;32330;51.936;7.184;2023-03-01T19:00:24;8.90;;;6.60;;
46607;SDS011;32330;51.936;7.184;2023-03-01T19:02:51;10.10;;;6.15;;
46607;SDS011;32330;51.936;7.184;2023-03-01T19:05:18;5.88;;;4.38;;
46607;SDS011;32330;51.936;7.184;2023-03-01T19:07:45;6.43;;;3.85;;
46607;SDS011;32330;51.936;7.184;2023-03-01T19:10:12;4.85;;;3.60;;
46607;SDS011;32330;51.936;7.184;2023-03-01T19:12:39;7.43;;;3.95;;
46607;SDS011;32330;51.936;7.184;2023-03-01T19:15:07;6.95;;;4.20;;
46607;SDS011;32330;51.936;7.184;2023-03-01T19:17:35;8.27;;;4.35;;
46607;SDS011;32330;51.936;7.184;2023-03-01T19:20:02;6.93;;;4.28;;
46607;SDS011;32330;51.936;7.184;2023-03-01T19:22:29;6.78;;;4.75;;
46607;SDS011;32330;51.936;7.184;2023-03-01T19:24:56;8.40;;;4.55;;
46607;SDS011;32330;51.936;7.184;2023-03-01T19:27:23;8.90;;;5.75;;
46607;SDS011;32330;51.936;7.184;2023-03-01T19:29:50;7.03;;;4.20;;
46607;SDS011;32330;51.936;7.184;2023-03-01T19:32:19;7.50;;;5.20;;
46607;SDS011;32330;51.936;7.184;2023-03-01T19:34:46;5.25;;;3.80;;
46607;SDS011;32330;51.936;7.184;2023-03-01T19:37:13;7.45;;;4.15;;
46607;SDS011;32330;51.936;7.184;2023-03-01T19:39:40;7.93;;;5.07;;
46607;SDS011;32330;51.936;7.184;2023-03-01T19:42:07;9.30;;;6.20;;
46607;SDS011;32330;51.936;7.184;2023-03-01T19:44:34;12.65;;;7.45;;
46607;SDS011;32330;51.936;7.184;2023-03-01T19:47:04;11.77;;;7.50;;
46607;SDS011;32330;51.936;7.184;2023-03-01T19:49:32;9.35;;;5.65;;
46607;SDS011;32330;51.936;7.184;2023-03-01T19:52:04;6.53;;;4.50;;
46607;SDS011;32330;51.936;7.184;2023-03-01T19:54:31;8.45;;;5.82;;
46607;SDS011;32330;51.936;7.184;2023-03-01T19:56:58;7.78;;;4.55;;
46607;SDS011;32330;51.936;7.184;2023-03-01T19:59:25;7.45;;;4.90;;
46607;SDS011;32330;51.936;7.184;2023-03-01T20:01:52;11.60;;;5.25;;
46607;SDS011;32330;51.936;7.184;2023-03-01T20:04:20;6.65;;;5.07;;
46607;SDS011;32330;51.936;7.184;2023-03-01T20:06:49;9.63;;;4.75;;
46607;SDS011;32330;51.936;7.184;2023-03-01T20:09:16;6.88;;;4.53;;
46607;SDS011;32330;51.936;7.184;2023-03-01T20:11:43;13.43;;;4.57;;